sensor_id;sensor_type;location;lat;lon;timestamp;temperature;humidity
44894;DHT22;30625;52.206;21.030;2022-11-21T00:01:55;-1.80;99.90
44894;DHT22;30625;52.206;21.030;2022-11-21T00:04:21;-1.80;99.90
44894;DHT22;30625;52.206;21.030;2022-11-21T00:06:46;-1.50;99.90
44894;DHT22;30625;52.206;21.030;2022-11-21T00:09:12;-0.80;99.90
44894;DHT22;30625;52.206;21.030;2022-11-21T00:11:38;-1.70;99.90
44894;DHT22;30625;52.206;21.030;2022-11-21T00:14:03;-1.70;99.90
44894;DHT22;30625;52.206;21.030;2022-11-21T00:16:29;-1.70;99.90
44894;DHT22;30625;52.206;21.030;2022-11-21T00:18:55;-0.80;99.90
44894;DHT22;30625;52.206;21.030;2022-11-21T00:21:20;-1.60;99.90
44894;DHT22;30625;52.206;21.030;2022-11-21T00:23:46;-1.60;99.90
44894;DHT22;30625;52.206;21.030;2022-11-21T00:26:14;-0.80;99.90
44894;DHT22;30625;52.206;21.030;2022-11-21T00:28:40;-1.50;99.90
44894;DHT22;30625;52.206;21.030;2022-11-21T00:31:06;-1.50;99.90
44894;DHT22;30625;52.206;21.030;2022-11-21T00:33:35;-0.70;99.90
44894;DHT22;30625;52.206;21.030;2022-11-21T00:36:06;-1.50;99.90
44894;DHT22;30625;52.206;21.030;2022-11-21T00:38:32;-1.50;99.90
44894;DHT22;30625;52.206;21.030;2022-11-21T00:40:58;-1.50;99.90
44894;DHT22;30625;52.206;21.030;2022-11-21T00:43:23;-1.50;99.90
44894;DHT22;30625;52.206;21.030;2022-11-21T00:45:49;-0.90;99.90
44894;DHT22;30625;52.206;21.030;2022-11-21T00:48:14;-1.40;99.90
44894;DHT22;30625;52.206;21.030;2022-11-21T00:50:40;-1.40;99.90
44894;DHT22;30625;52.206;21.030;2022-11-21T00:53:05;-1.40;99.90
44894;DHT22;30625;52.206;21.030;2022-11-21T00:55:31;-1.40;99.90
44894;DHT22;30625;52.206;21.030;2022-11-21T00:57:57;-0.30;99.90
44894;DHT22;30625;52.206;21.030;2022-11-21T01:00:22;-1.40;99.90
44894;DHT22;30625;52.206;21.030;2022-11-21T01:02:48;-1.40;99.90
44894;DHT22;30625;52.206;21.030;2022-11-21T01:05:14;-1.30;99.90
44894;DHT22;30625;52.206;21.030;2022-11-21T01:07:39;-1.30;99.90
44894;DHT22;30625;52.206;21.030;2022-11-21T01:10:05;-1.30;99.90
44894;DHT22;30625;52.206;21.030;2022-11-21T01:12:31;-1.30;99.90
44894;DHT22;30625;52.206;21.030;2022-11-21T01:14:57;-0.20;99.90
44894;DHT22;30625;52.206;21.030;2022-11-21T01:17:22;-1.40;99.90
44894;DHT22;30625;52.206;21.030;2022-11-21T01:19:48;-1.40;99.90
44894;DHT22;30625;52.206;21.030;2022-11-21T01:22:14;-1.50;99.90
44894;DHT22;30625;52.206;21.030;2022-11-21T01:24:40;-1.20;99.90
44894;DHT22;30625;52.206;21.030;2022-11-21T01:27:05;-0.50;99.90
44894;DHT22;30625;52.206;21.030;2022-11-21T01:29:31;-1.50;99.90
44894;DHT22;30625;52.206;21.030;2022-11-21T01:31:56;-1.50;99.90
44894;DHT22;30625;52.206;21.030;2022-11-21T01:34:22;-1.50;99.90
44894;DHT22;30625;52.206;21.030;2022-11-21T01:36:48;-1.60;99.90
44894;DHT22;30625;52.206;21.030;2022-11-21T01:39:13;-0.30;99.90
44894;DHT22;30625;52.206;21.030;2022-11-21T01:41:41;-1.70;99.90
44894;DHT22;30625;52.206;21.030;2022-11-21T01:44:22;-0.30;99.90
44894;DHT22;30625;52.206;21.030;2022-11-21T01:46:49;-1.70;99.90
44894;DHT22;30625;52.206;21.030;2022-11-21T01:49:26;-0.60;99.90
44894;DHT22;30625;52.206;21.030;2022-11-21T01:57:29;-1.70;99.90
44894;DHT22;30625;52.206;21.030;2022-11-21T02:00:10;-1.60;99.90
44894;DHT22;30625;52.206;21.030;2022-11-21T02:02:40;-1.70;99.90
44894;DHT22;30625;52.206;21.030;2022-11-21T02:05:10;-1.70;99.90
44894;DHT22;30625;52.206;21.030;2022-11-21T02:07:40;-1.70;99.90
44894;DHT22;30625;52.206;21.030;2022-11-21T02:10:06;-1.70;99.90
44894;DHT22;30625;52.206;21.030;2022-11-21T02:12:38;-1.70;99.90
44894;DHT22;30625;52.206;21.030;2022-11-21T02:15:06;-1.70;99.90
44894;DHT22;30625;52.206;21.030;2022-11-21T02:17:32;-1.70;99.90
44894;DHT22;30625;52.206;21.030;2022-11-21T02:20:06;-1.70;99.90
44894;DHT22;30625;52.206;21.030;2022-11-21T02:25:27;-1.70;99.90
44894;DHT22;30625;52.206;21.030;2022-11-21T02:28:14;-1.70;99.90
44894;DHT22;30625;52.206;21.030;2022-11-21T02:30:41;-1.90;99.90
44894;DHT22;30625;52.206;21.030;2022-11-21T02:33:08;-1.90;99.90
44894;DHT22;30625;52.206;21.030;2022-11-21T02:35:34;-1.40;99.90
44894;DHT22;30625;52.206;21.030;2022-11-21T02:38:04;-1.90;99.90
44894;DHT22;30625;52.206;21.030;2022-11-21T02:40:34;-1.60;99.90
44894;DHT22;30625;52.206;21.030;2022-11-21T02:45:41;-2.00;99.90
44894;DHT22;30625;52.206;21.030;2022-11-21T02:48:07;-2.00;99.90
44894;DHT22;30625;52.206;21.030;2022-11-21T02:50:34;-2.00;99.90
44894;DHT22;30625;52.206;21.030;2022-11-21T02:53:02;-2.10;99.90
44894;DHT22;30625;52.206;21.030;2022-11-21T02:55:28;-2.10;99.90
44894;DHT22;30625;52.206;21.030;2022-11-21T02:57:53;-2.10;99.90
44894;DHT22;30625;52.206;21.030;2022-11-21T03:00:19;-2.20;99.90
44894;DHT22;30625;52.206;21.030;2022-11-21T03:02:45;-2.20;99.90
44894;DHT22;30625;52.206;21.030;2022-11-21T03:05:14;-2.20;99.90
44894;DHT22;30625;52.206;21.030;2022-11-21T03:07:40;-0.90;99.90
44894;DHT22;30625;52.206;21.030;2022-11-21T03:10:05;-2.80;99.90
44894;DHT22;30625;52.206;21.030;2022-11-21T03:12:31;-2.20;99.90
44894;DHT22;30625;52.206;21.030;2022-11-21T03:14:57;-2.20;99.90
44894;DHT22;30625;52.206;21.030;2022-11-21T03:17:22;-2.30;99.90
44894;DHT22;30625;52.206;21.030;2022-11-21T03:19:48;-2.30;99.90
44894;DHT22;30625;52.206;21.030;2022-11-21T03:22:14;-2.20;99.90
44894;DHT22;30625;52.206;21.030;2022-11-21T03:24:40;-2.20;99.90
44894;DHT22;30625;52.206;21.030;2022-11-21T03:27:06;-2.20;99.90
44894;DHT22;30625;52.206;21.030;2022-11-21T03:29:31;-1.20;99.90
44894;DHT22;30625;52.206;21.030;2022-11-21T03:31:57;-2.40;99.90
44894;DHT22;30625;52.206;21.030;2022-11-21T03:34:23;-2.40;99.90
44894;DHT22;30625;52.206;21.030;2022-11-21T03:36:49;-2.50;99.90
44894;DHT22;30625;52.206;21.030;2022-11-21T03:39:15;-2.40;99.90
44894;DHT22;30625;52.206;21.030;2022-11-21T03:41:40;-2.50;99.90
44894;DHT22;30625;52.206;21.030;2022-11-21T03:44:08;-2.50;99.90
44894;DHT22;30625;52.206;21.030;2022-11-21T03:46:36;-1.80;99.90
44894;DHT22;30625;52.206;21.030;2022-11-21T03:49:02;-2.60;99.90
44894;DHT22;30625;52.206;21.030;2022-11-21T03:51:28;-2.60;99.90
44894;DHT22;30625;52.206;21.030;2022-11-21T03:53:54;-2.60;99.90
44894;DHT22;30625;52.206;21.030;2022-11-21T03:56:20;-2.60;99.90
44894;DHT22;30625;52.206;21.030;2022-11-21T03:58:45;-1.20;99.90
44894;DHT22;30625;52.206;21.030;2022-11-21T04:01:11;-2.60;99.90
44894;DHT22;30625;52.206;21.030;2022-11-21T04:03:40;-1.50;99.90
44894;DHT22;30625;52.206;21.030;2022-11-21T04:06:06;-2.70;99.90
44894;DHT22;30625;52.206;21.030;2022-11-21T04:08:32;-2.60;99.90
44894;DHT22;30625;52.206;21.030;2022-11-21T04:10:57;-2.60;99.90
44894;DHT22;30625;52.206;21.030;2022-11-21T04:13:23;-1.50;99.90
44894;DHT22;30625;52.206;21.030;2022-11-21T04:15:49;-2.80;99.90
44894;DHT22;30625;52.206;21.030;2022-11-21T04:18:14;-2.80;99.90
44894;DHT22;30625;52.206;21.030;2022-11-21T04:20:40;-2.80;99.90
44894;DHT22;30625;52.206;21.030;2022-11-21T04:23:06;-2.10;99.90
44894;DHT22;30625;52.206;21.030;2022-11-21T04:25:32;-1.40;99.90
44894;DHT22;30625;52.206;21.030;2022-11-21T04:27:57;-2.90;99.90
44894;DHT22;30625;52.206;21.030;2022-11-21T04:30:23;-2.80;99.90
44894;DHT22;30625;52.206;21.030;2022-11-21T04:32:49;-2.80;99.90
44894;DHT22;30625;52.206;21.030;2022-11-21T04:35:15;-2.80;99.90
44894;DHT22;30625;52.206;21.030;2022-11-21T04:37:41;-2.80;99.90
44894;DHT22;30625;52.206;21.030;2022-11-21T04:40:06;-2.90;99.90
44894;DHT22;30625;52.206;21.030;2022-11-21T04:42:32;-2.90;99.90
44894;DHT22;30625;52.206;21.030;2022-11-21T04:44:58;-2.90;99.90
44894;DHT22;30625;52.206;21.030;2022-11-21T04:47:23;-2.90;99.90
44894;DHT22;30625;52.206;21.030;2022-11-21T04:49:48;-2.90;99.90
44894;DHT22;30625;52.206;21.030;2022-11-21T04:52:14;-3.00;99.90
44894;DHT22;30625;52.206;21.030;2022-11-21T04:54:39;-3.00;99.90
44894;DHT22;30625;52.206;21.030;2022-11-21T04:57:05;-3.10;99.90
44894;DHT22;30625;52.206;21.030;2022-11-21T04:59:31;-3.10;99.90
44894;DHT22;30625;52.206;21.030;2022-11-21T05:01:56;-3.10;99.90
44894;DHT22;30625;52.206;21.030;2022-11-21T05:04:22;-3.10;99.90
44894;DHT22;30625;52.206;21.030;2022-11-21T05:06:47;-3.10;99.90
44894;DHT22;30625;52.206;21.030;2022-11-21T05:09:13;-3.10;99.90
44894;DHT22;30625;52.206;21.030;2022-11-21T05:11:38;-3.20;99.90
44894;DHT22;30625;52.206;21.030;2022-11-21T05:14:23;-3.20;99.90
44894;DHT22;30625;52.206;21.030;2022-11-21T05:16:51;-3.20;99.90
44894;DHT22;30625;52.206;21.030;2022-11-21T05:19:18;-1.80;99.90
44894;DHT22;30625;52.206;21.030;2022-11-21T05:21:44;-3.00;99.90
44894;DHT22;30625;52.206;21.030;2022-11-21T05:24:09;-1.40;99.90
44894;DHT22;30625;52.206;21.030;2022-11-21T05:26:35;-3.10;99.90
44894;DHT22;30625;52.206;21.030;2022-11-21T05:29:02;-3.10;99.90
44894;DHT22;30625;52.206;21.030;2022-11-21T05:31:28;-3.10;99.90
44894;DHT22;30625;52.206;21.030;2022-11-21T05:36:56;-4.50;99.90
44894;DHT22;30625;52.206;21.030;2022-11-21T05:39:25;-3.10;99.90
44894;DHT22;30625;52.206;21.030;2022-11-21T05:41:51;-2.90;99.90
44894;DHT22;30625;52.206;21.030;2022-11-21T05:46:52;-3.30;99.90
44894;DHT22;30625;52.206;21.030;2022-11-21T05:49:18;-2.20;99.90
44894;DHT22;30625;52.206;21.030;2022-11-21T05:51:44;-3.30;99.90
44894;DHT22;30625;52.206;21.030;2022-11-21T05:54:13;-3.30;99.90
44894;DHT22;30625;52.206;21.030;2022-11-21T05:56:39;-3.30;99.90
44894;DHT22;30625;52.206;21.030;2022-11-21T05:59:04;-2.30;99.90
44894;DHT22;30625;52.206;21.030;2022-11-21T06:01:30;-3.10;99.90
44894;DHT22;30625;52.206;21.030;2022-11-21T06:04:14;-3.20;99.90
44894;DHT22;30625;52.206;21.030;2022-11-21T06:06:39;-3.20;99.90
44894;DHT22;30625;52.206;21.030;2022-11-21T06:09:05;-3.20;99.90
44894;DHT22;30625;52.206;21.030;2022-11-21T06:11:31;-2.80;99.90
44894;DHT22;30625;52.206;21.030;2022-11-21T06:13:57;-3.20;99.90
44894;DHT22;30625;52.206;21.030;2022-11-21T06:16:22;-3.40;99.90
44894;DHT22;30625;52.206;21.030;2022-11-21T06:18:48;-3.40;99.90
44894;DHT22;30625;52.206;21.030;2022-11-21T06:21:15;-2.30;99.90
44894;DHT22;30625;52.206;21.030;2022-11-21T06:23:41;-3.30;99.90
44894;DHT22;30625;52.206;21.030;2022-11-21T06:26:07;-3.30;99.90
44894;DHT22;30625;52.206;21.030;2022-11-21T06:28:34;-3.20;99.90
44894;DHT22;30625;52.206;21.030;2022-11-21T06:31:03;-2.40;99.90
44894;DHT22;30625;52.206;21.030;2022-11-21T06:33:29;-3.20;99.90
44894;DHT22;30625;52.206;21.030;2022-11-21T06:36:00;-3.20;99.90
44894;DHT22;30625;52.206;21.030;2022-11-21T06:38:26;-3.20;99.90
44894;DHT22;30625;52.206;21.030;2022-11-21T06:40:51;-3.30;99.90
44894;DHT22;30625;52.206;21.030;2022-11-21T06:43:17;-2.10;99.90
44894;DHT22;30625;52.206;21.030;2022-11-21T06:45:42;-2.90;99.90
44894;DHT22;30625;52.206;21.030;2022-11-21T06:48:08;-3.20;99.90
44894;DHT22;30625;52.206;21.030;2022-11-21T06:50:33;-3.20;99.90
44894;DHT22;30625;52.206;21.030;2022-11-21T06:52:59;-3.10;99.90
44894;DHT22;30625;52.206;21.030;2022-11-21T06:55:25;-1.90;99.90
44894;DHT22;30625;52.206;21.030;2022-11-21T06:57:58;-3.00;99.90
44894;DHT22;30625;52.206;21.030;2022-11-21T07:00:24;-3.00;99.90
44894;DHT22;30625;52.206;21.030;2022-11-21T07:02:50;-3.00;99.90
44894;DHT22;30625;52.206;21.030;2022-11-21T07:05:15;-2.90;99.90
44894;DHT22;30625;52.206;21.030;2022-11-21T07:07:41;-2.90;99.90
44894;DHT22;30625;52.206;21.030;2022-11-21T07:10:06;-2.80;99.90
44894;DHT22;30625;52.206;21.030;2022-11-21T07:12:33;-2.80;99.90
44894;DHT22;30625;52.206;21.030;2022-11-21T07:15:17;-2.80;99.90
44894;DHT22;30625;52.206;21.030;2022-11-21T07:17:42;-2.70;99.90
44894;DHT22;30625;52.206;21.030;2022-11-21T07:20:08;-2.70;99.90
44894;DHT22;30625;52.206;21.030;2022-11-21T07:22:34;-2.60;99.90
44894;DHT22;30625;52.206;21.030;2022-11-21T07:25:00;-2.50;99.90
44894;DHT22;30625;52.206;21.030;2022-11-21T07:27:26;-2.50;99.90
44894;DHT22;30625;52.206;21.030;2022-11-21T07:29:51;-2.40;99.90
44894;DHT22;30625;52.206;21.030;2022-11-21T07:32:17;-2.50;99.90
44894;DHT22;30625;52.206;21.030;2022-11-21T07:34:42;-2.40;99.90
44894;DHT22;30625;52.206;21.030;2022-11-21T07:37:08;-2.30;99.90
44894;DHT22;30625;52.206;21.030;2022-11-21T07:39:33;-2.30;99.90
44894;DHT22;30625;52.206;21.030;2022-11-21T07:41:59;-2.20;99.90
44894;DHT22;30625;52.206;21.030;2022-11-21T07:44:25;-2.20;99.90
44894;DHT22;30625;52.206;21.030;2022-11-21T07:46:53;-1.70;99.90
44894;DHT22;30625;52.206;21.030;2022-11-21T07:49:20;-2.10;99.90
44894;DHT22;30625;52.206;21.030;2022-11-21T07:51:45;-2.00;99.90
44894;DHT22;30625;52.206;21.030;2022-11-21T07:54:10;-1.90;99.90
44894;DHT22;30625;52.206;21.030;2022-11-21T07:56:36;-1.90;99.90
44894;DHT22;30625;52.206;21.030;2022-11-21T07:59:02;-1.50;99.90
44894;DHT22;30625;52.206;21.030;2022-11-21T08:01:27;-1.70;99.90
44894;DHT22;30625;52.206;21.030;2022-11-21T08:03:53;-1.50;99.90
44894;DHT22;30625;52.206;21.030;2022-11-21T08:06:18;-1.40;99.90
44894;DHT22;30625;52.206;21.030;2022-11-21T08:08:44;-1.30;99.90
44894;DHT22;30625;52.206;21.030;2022-11-21T08:11:09;-1.20;99.90
44894;DHT22;30625;52.206;21.030;2022-11-21T08:13:35;-1.00;99.90
44894;DHT22;30625;52.206;21.030;2022-11-21T08:16:03;-1.20;99.90
44894;DHT22;30625;52.206;21.030;2022-11-21T08:18:29;-1.20;99.90
44894;DHT22;30625;52.206;21.030;2022-11-21T08:20:54;-0.40;99.90
44894;DHT22;30625;52.206;21.030;2022-11-21T08:23:20;-1.10;99.90
44894;DHT22;30625;52.206;21.030;2022-11-21T08:25:46;-1.00;99.90
44894;DHT22;30625;52.206;21.030;2022-11-21T08:28:11;-1.00;99.90
44894;DHT22;30625;52.206;21.030;2022-11-21T08:30:37;-1.00;99.90
44894;DHT22;30625;52.206;21.030;2022-11-21T08:33:03;-1.10;99.90
44894;DHT22;30625;52.206;21.030;2022-11-21T08:35:29;-1.10;99.90
44894;DHT22;30625;52.206;21.030;2022-11-21T08:37:56;-1.00;99.90
44894;DHT22;30625;52.206;21.030;2022-11-21T08:40:22;-1.00;99.90
44894;DHT22;30625;52.206;21.030;2022-11-21T08:42:54;-0.40;99.90
44894;DHT22;30625;52.206;21.030;2022-11-21T08:45:20;-1.00;99.90
44894;DHT22;30625;52.206;21.030;2022-11-21T08:47:45;-0.90;99.90
44894;DHT22;30625;52.206;21.030;2022-11-21T08:50:11;-1.00;99.90
44894;DHT22;30625;52.206;21.030;2022-11-21T08:52:36;-0.90;99.90
44894;DHT22;30625;52.206;21.030;2022-11-21T08:55:02;0.60;99.90
44894;DHT22;30625;52.206;21.030;2022-11-21T08:57:27;-0.70;99.90
44894;DHT22;30625;52.206;21.030;2022-11-21T08:59:53;-0.60;99.90
44894;DHT22;30625;52.206;21.030;2022-11-21T09:02:18;-0.60;99.90
44894;DHT22;30625;52.206;21.030;2022-11-21T09:04:44;-0.60;99.90
44894;DHT22;30625;52.206;21.030;2022-11-21T09:07:09;-0.50;99.90
44894;DHT22;30625;52.206;21.030;2022-11-21T09:09:35;-0.40;99.90
44894;DHT22;30625;52.206;21.030;2022-11-21T09:12:00;-0.20;99.90
44894;DHT22;30625;52.206;21.030;2022-11-21T09:14:27;0.30;99.90
44894;DHT22;30625;52.206;21.030;2022-11-21T09:17:12;0.10;99.90
44894;DHT22;30625;52.206;21.030;2022-11-21T09:19:56;0.20;99.90
44894;DHT22;30625;52.206;21.030;2022-11-21T09:22:22;0.30;99.90
44894;DHT22;30625;52.206;21.030;2022-11-21T09:24:48;0.30;99.90
44894;DHT22;30625;52.206;21.030;2022-11-21T09:27:13;0.40;99.90
44894;DHT22;30625;52.206;21.030;2022-11-21T09:29:39;0.50;99.90
44894;DHT22;30625;52.206;21.030;2022-11-21T09:32:04;0.80;99.90
44894;DHT22;30625;52.206;21.030;2022-11-21T09:34:30;0.80;99.90
44894;DHT22;30625;52.206;21.030;2022-11-21T09:36:55;0.90;99.90
44894;DHT22;30625;52.206;21.030;2022-11-21T09:39:21;1.10;99.90
44894;DHT22;30625;52.206;21.030;2022-11-21T09:41:52;1.40;99.90
44894;DHT22;30625;52.206;21.030;2022-11-21T09:47:26;2.20;99.90
44894;DHT22;30625;52.206;21.030;2022-11-21T09:52:27;3.90;99.90
44894;DHT22;30625;52.206;21.030;2022-11-21T09:54:58;2.20;99.90
44894;DHT22;30625;52.206;21.030;2022-11-21T09:57:25;1.90;99.90
44894;DHT22;30625;52.206;21.030;2022-11-21T09:59:51;1.90;99.90
44894;DHT22;30625;52.206;21.030;2022-11-21T10:02:17;2.00;99.90
44894;DHT22;30625;52.206;21.030;2022-11-21T10:04:44;2.00;99.90
44894;DHT22;30625;52.206;21.030;2022-11-21T10:07:11;1.70;99.90
44894;DHT22;30625;52.206;21.030;2022-11-21T10:25:23;1.40;99.90
44894;DHT22;30625;52.206;21.030;2022-11-21T10:27:54;1.40;99.90
44894;DHT22;30625;52.206;21.030;2022-11-21T10:30:21;1.30;99.90
44894;DHT22;30625;52.206;21.030;2022-11-21T10:35:17;1.40;99.90
44894;DHT22;30625;52.206;21.030;2022-11-21T10:37:53;1.50;99.90
44894;DHT22;30625;52.206;21.030;2022-11-21T10:43:34;1.60;99.90
44894;DHT22;30625;52.206;21.030;2022-11-21T10:46:19;1.60;99.90
44894;DHT22;30625;52.206;21.030;2022-11-21T10:54:04;1.80;99.90
44894;DHT22;30625;52.206;21.030;2022-11-21T10:56:49;1.80;99.90
44894;DHT22;30625;52.206;21.030;2022-11-21T10:59:34;1.80;99.90
44894;DHT22;30625;52.206;21.030;2022-11-21T11:04:37;1.80;99.90
44894;DHT22;30625;52.206;21.030;2022-11-21T11:07:19;1.90;99.90
44894;DHT22;30625;52.206;21.030;2022-11-21T11:09:45;1.90;99.90
44894;DHT22;30625;52.206;21.030;2022-11-21T11:12:27;2.00;99.90
44894;DHT22;30625;52.206;21.030;2022-11-21T11:15:23;2.10;99.90
44894;DHT22;30625;52.206;21.030;2022-11-21T11:17:58;2.20;99.90
44894;DHT22;30625;52.206;21.030;2022-11-21T11:22:56;2.40;99.90
44894;DHT22;30625;52.206;21.030;2022-11-21T11:25:21;2.50;99.90
44894;DHT22;30625;52.206;21.030;2022-11-21T11:27:47;2.80;99.90
44894;DHT22;30625;52.206;21.030;2022-11-21T11:30:14;2.70;99.90
44894;DHT22;30625;52.206;21.030;2022-11-21T11:32:39;2.60;99.90
44894;DHT22;30625;52.206;21.030;2022-11-21T11:37:38;2.90;99.90
44894;DHT22;30625;52.206;21.030;2022-11-21T11:48:23;3.20;99.90
44894;DHT22;30625;52.206;21.030;2022-11-21T11:50:52;3.20;99.90
44894;DHT22;30625;52.206;21.030;2022-11-21T11:53:24;3.10;99.90
44894;DHT22;30625;52.206;21.030;2022-11-21T11:55:52;3.10;99.90
44894;DHT22;30625;52.206;21.030;2022-11-21T12:03:13;3.00;99.90
44894;DHT22;30625;52.206;21.030;2022-11-21T12:06:41;3.00;99.90
44894;DHT22;30625;52.206;21.030;2022-11-21T12:08:37;3.00;99.90
44894;DHT22;30625;52.206;21.030;2022-11-21T12:17:15;3.00;99.90
44894;DHT22;30625;52.206;21.030;2022-11-21T12:19:41;3.00;99.90
44894;DHT22;30625;52.206;21.030;2022-11-21T12:22:08;3.10;99.90
44894;DHT22;30625;52.206;21.030;2022-11-21T12:24:36;3.00;99.90
44894;DHT22;30625;52.206;21.030;2022-11-21T12:30:06;3.00;99.90
44894;DHT22;30625;52.206;21.030;2022-11-21T12:40:45;3.50;99.90
44894;DHT22;30625;52.206;21.030;2022-11-21T12:43:20;2.90;99.90
44894;DHT22;30625;52.206;21.030;2022-11-21T12:45:50;2.90;99.90
44894;DHT22;30625;52.206;21.030;2022-11-21T12:54:08;2.80;99.90
44894;DHT22;30625;52.206;21.030;2022-11-21T12:59:20;2.60;99.90
44894;DHT22;30625;52.206;21.030;2022-11-21T13:04:14;2.50;99.90
44894;DHT22;30625;52.206;21.030;2022-11-21T13:06:42;2.50;99.90
44894;DHT22;30625;52.206;21.030;2022-11-21T13:09:12;2.50;99.90
44894;DHT22;30625;52.206;21.030;2022-11-21T13:11:59;2.50;99.90
44894;DHT22;30625;52.206;21.030;2022-11-21T13:24:53;2.40;99.90
44894;DHT22;30625;52.206;21.030;2022-11-21T13:27:25;2.40;99.90
44894;DHT22;30625;52.206;21.030;2022-11-21T13:45:44;2.20;99.90
44894;DHT22;30625;52.206;21.030;2022-11-21T13:50:46;2.30;99.90
44894;DHT22;30625;52.206;21.030;2022-11-21T14:06:11;2.20;99.90
44894;DHT22;30625;52.206;21.030;2022-11-21T14:08:41;2.30;99.90
44894;DHT22;30625;52.206;21.030;2022-11-21T14:11:25;2.30;99.90
44894;DHT22;30625;52.206;21.030;2022-11-21T14:13:54;2.30;99.90
44894;DHT22;30625;52.206;21.030;2022-11-21T14:16:26;2.30;99.90
44894;DHT22;30625;52.206;21.030;2022-11-21T14:18:54;2.30;99.90
44894;DHT22;30625;52.206;21.030;2022-11-21T14:21:27;2.30;99.90
44894;DHT22;30625;52.206;21.030;2022-11-21T14:24:04;2.30;99.90
44894;DHT22;30625;52.206;21.030;2022-11-21T14:26:48;2.40;99.90
44894;DHT22;30625;52.206;21.030;2022-11-21T14:29:27;2.30;99.90
44894;DHT22;30625;52.206;21.030;2022-11-21T14:32:01;2.30;99.90
44894;DHT22;30625;52.206;21.030;2022-11-21T14:34:28;2.20;99.90
44894;DHT22;30625;52.206;21.030;2022-11-21T14:36:54;2.20;99.90
44894;DHT22;30625;52.206;21.030;2022-11-21T14:39:22;2.40;99.90
44894;DHT22;30625;52.206;21.030;2022-11-21T14:42:22;2.00;99.90
44894;DHT22;30625;52.206;21.030;2022-11-21T14:44:41;1.90;99.90
44894;DHT22;30625;52.206;21.030;2022-11-21T14:49:32;1.90;99.90
44894;DHT22;30625;52.206;21.030;2022-11-21T14:52:17;1.80;99.90
44894;DHT22;30625;52.206;21.030;2022-11-21T14:57:17;1.60;99.90
44894;DHT22;30625;52.206;21.030;2022-11-21T14:59:43;1.60;99.90
44894;DHT22;30625;52.206;21.030;2022-11-21T15:02:20;1.70;99.90
44894;DHT22;30625;52.206;21.030;2022-11-21T15:04:46;1.70;99.90
44894;DHT22;30625;52.206;21.030;2022-11-21T15:07:23;1.90;99.90
44894;DHT22;30625;52.206;21.030;2022-11-21T15:09:49;2.80;99.90
44894;DHT22;30625;52.206;21.030;2022-11-21T15:12:20;1.60;99.90
44894;DHT22;30625;52.206;21.030;2022-11-21T15:14:48;1.50;99.90
44894;DHT22;30625;52.206;21.030;2022-11-21T15:17:15;1.60;99.90
44894;DHT22;30625;52.206;21.030;2022-11-21T15:19:42;1.50;99.90
44894;DHT22;30625;52.206;21.030;2022-11-21T15:22:19;1.50;99.90
44894;DHT22;30625;52.206;21.030;2022-11-21T15:24:46;1.50;99.90
44894;DHT22;30625;52.206;21.030;2022-11-21T15:32:27;1.40;99.90
44894;DHT22;30625;52.206;21.030;2022-11-21T15:34:52;1.40;99.90
44894;DHT22;30625;52.206;21.030;2022-11-21T15:37:18;1.90;99.90
44894;DHT22;30625;52.206;21.030;2022-11-21T15:39:44;1.40;99.90
44894;DHT22;30625;52.206;21.030;2022-11-21T15:44:55;1.30;99.90
44894;DHT22;30625;52.206;21.030;2022-11-21T15:47:21;1.30;99.90
44894;DHT22;30625;52.206;21.030;2022-11-21T15:49:56;1.80;99.90
44894;DHT22;30625;52.206;21.030;2022-11-21T15:52:22;1.20;99.90
44894;DHT22;30625;52.206;21.030;2022-11-21T15:54:48;1.20;99.90
44894;DHT22;30625;52.206;21.030;2022-11-21T15:57:13;1.30;99.90
44894;DHT22;30625;52.206;21.030;2022-11-21T15:59:39;1.70;99.90
44894;DHT22;30625;52.206;21.030;2022-11-21T16:02:05;2.00;99.90
44894;DHT22;30625;52.206;21.030;2022-11-21T16:04:30;1.20;99.90
44894;DHT22;30625;52.206;21.030;2022-11-21T16:06:56;1.20;99.90
44894;DHT22;30625;52.206;21.030;2022-11-21T16:09:21;1.20;99.90
44894;DHT22;30625;52.206;21.030;2022-11-21T16:11:47;1.60;99.90
44894;DHT22;30625;52.206;21.030;2022-11-21T16:14:13;2.60;99.90
44894;DHT22;30625;52.206;21.030;2022-11-21T16:16:40;1.20;99.90
44894;DHT22;30625;52.206;21.030;2022-11-21T16:19:06;1.20;99.90
44894;DHT22;30625;52.206;21.030;2022-11-21T16:21:32;1.20;99.90
44894;DHT22;30625;52.206;21.030;2022-11-21T16:23:57;1.40;99.90
44894;DHT22;30625;52.206;21.030;2022-11-21T16:26:23;1.20;99.90
44894;DHT22;30625;52.206;21.030;2022-11-21T16:28:52;1.10;99.90
44894;DHT22;30625;52.206;21.030;2022-11-21T16:31:18;1.10;99.90
44894;DHT22;30625;52.206;21.030;2022-11-21T16:33:44;1.00;99.90
44894;DHT22;30625;52.206;21.030;2022-11-21T16:36:09;1.80;99.90
44894;DHT22;30625;52.206;21.030;2022-11-21T16:38:35;1.10;99.90
44894;DHT22;30625;52.206;21.030;2022-11-21T16:41:01;-0.50;99.90
44894;DHT22;30625;52.206;21.030;2022-11-21T16:43:28;1.30;99.90
44894;DHT22;30625;52.206;21.030;2022-11-21T16:45:54;1.20;99.90
44894;DHT22;30625;52.206;21.030;2022-11-21T16:48:21;1.10;99.90
44894;DHT22;30625;52.206;21.030;2022-11-21T16:50:46;1.10;99.90
44894;DHT22;30625;52.206;21.030;2022-11-21T16:53:12;1.10;99.90
44894;DHT22;30625;52.206;21.030;2022-11-21T16:55:38;1.10;99.90
44894;DHT22;30625;52.206;21.030;2022-11-21T16:58:03;1.10;99.90
44894;DHT22;30625;52.206;21.030;2022-11-21T17:00:29;1.20;99.90
44894;DHT22;30625;52.206;21.030;2022-11-21T17:02:55;1.10;99.90
44894;DHT22;30625;52.206;21.030;2022-11-21T17:05:21;1.20;99.90
44894;DHT22;30625;52.206;21.030;2022-11-21T17:07:49;1.10;99.90
44894;DHT22;30625;52.206;21.030;2022-11-21T17:10:16;1.10;99.90
44894;DHT22;30625;52.206;21.030;2022-11-21T17:12:42;1.20;99.90
44894;DHT22;30625;52.206;21.030;2022-11-21T17:15:12;1.20;99.90
44894;DHT22;30625;52.206;21.030;2022-11-21T17:17:37;1.20;99.90
44894;DHT22;30625;52.206;21.030;2022-11-21T17:20:04;1.10;99.90
44894;DHT22;30625;52.206;21.030;2022-11-21T17:22:30;1.20;99.90
44894;DHT22;30625;52.206;21.030;2022-11-21T17:24:55;1.20;99.90
44894;DHT22;30625;52.206;21.030;2022-11-21T17:27:21;1.20;99.90
44894;DHT22;30625;52.206;21.030;2022-11-21T17:29:47;1.10;99.90
44894;DHT22;30625;52.206;21.030;2022-11-21T17:32:13;1.20;99.90
44894;DHT22;30625;52.206;21.030;2022-11-21T17:34:39;1.20;99.90
44894;DHT22;30625;52.206;21.030;2022-11-21T17:37:04;2.50;99.90
44894;DHT22;30625;52.206;21.030;2022-11-21T17:39:30;1.20;99.90
44894;DHT22;30625;52.206;21.030;2022-11-21T17:41:55;0.70;99.90
44894;DHT22;30625;52.206;21.030;2022-11-21T17:44:23;1.20;99.90
44894;DHT22;30625;52.206;21.030;2022-11-21T17:46:49;2.90;99.90
44894;DHT22;30625;52.206;21.030;2022-11-21T17:49:14;1.20;99.90
44894;DHT22;30625;52.206;21.030;2022-11-21T17:51:40;1.20;99.90
44894;DHT22;30625;52.206;21.030;2022-11-21T17:54:06;1.30;99.90
44894;DHT22;30625;52.206;21.030;2022-11-21T17:56:35;1.30;99.90
44894;DHT22;30625;52.206;21.030;2022-11-21T17:59:05;1.30;99.90